Terminal Aerodrome Forecast
Issued by NWS

Home | Current Version | Previous Version | Graphics & Text | Print | Product List | Glossary On
Versions: 1 2 3 4 5 6 7 8 9 10 11 12 13 14 15 16
767
FTUS42 KMHX 070901 AAA
TAFPGV
TAF AMD
KPGV 070901Z 0709/0806 31003KT P6SM OVC006
     FM071200 35006KT P6SM SCT008 BKN030
     FM071500 35007KT P6SM SCT030
     FM072200 VRB03KT P6SM SCT030
      AMD LTD TO CLD VIS AND WIND=

USA.gov is the U.S. government's official web portal to all federal, state and local government web resources and services.